Terminal Aerodrome Forecast
Issued by NWS

Home | Current Version | Previous Version | Text Only | Print | Product List | Glossary On
Versions: 1 2 3 4 5 6 7 8 9 10 11 12 13 14 15 16
000
FTPQ31 PGUM 290849 AAF
TAFGUM
TAF AMD

TAF AMD
PGSN 290849Z 2909/3006 08011KT P6SM VCSH SCT015 SCT025 BKN120
      TEMPO 2909/2911 5SM -SHRA SCT015 BKN025
     FM291100 10011KT P6SM VCSH FEW016 SCT030 BKN120=

USA.gov is the U.S. government's official web portal to all federal, state and local government web resources and services.